createdAt,value
2023-02-11T00:02:47.996Z,36.57
2023-02-11T00:06:49.528Z,36.76
2023-02-11T00:10:55.072Z,36.62
2023-02-11T00:14:56.564Z,36.67
2023-02-11T00:19:01.977Z,37.24
2023-02-11T00:23:03.306Z,37.08
2023-02-11T00:27:04.655Z,36.93
2023-02-11T00:31:06.158Z,36.86
2023-02-11T00:35:08.157Z,36.65
2023-02-11T00:39:09.602Z,36.91
2023-02-11T00:43:10.918Z,37.88
2023-02-11T00:47:12.381Z,37.17
2023-02-11T00:51:13.829Z,36.90
2023-02-11T00:55:15.784Z,37.59
2023-02-11T00:59:17.149Z,37.47
2023-02-11T01:03:18.446Z,37.75
2023-02-11T01:07:19.795Z,38.07
2023-02-11T01:11:21.847Z,38.01
2023-02-11T01:15:23.292Z,37.74
2023-02-11T01:19:24.621Z,38.11
2023-02-11T01:23:26.020Z,38.35
2023-02-11T01:27:27.314Z,37.87
2023-02-11T01:31:30.445Z,39.05
2023-02-11T01:35:31.929Z,38.71
2023-02-11T01:39:34.282Z,38.94
2023-02-11T01:43:39.624Z,38.73
2023-02-11T01:47:40.958Z,38.67
2023-02-11T01:51:50.962Z,38.60
2023-02-11T01:56:12.616Z,38.79
2023-02-11T02:00:27.291Z,38.63
2023-02-11T02:04:33.055Z,38.34
2023-02-11T02:08:37.741Z,38.68
2023-02-11T02:12:39.175Z,38.40
2023-02-11T02:16:40.587Z,38.69
2023-02-11T02:21:03.148Z,38.36
2023-02-11T02:25:24.852Z,38.47
2023-02-11T02:30:01.957Z,38.69
2023-02-11T02:34:44.736Z,39.20
2023-02-11T02:39:04.108Z,38.96
2023-02-11T02:43:10.688Z,39.24
2023-02-11T02:47:12.027Z,39.43
2023-02-11T02:51:41.299Z,39.21
2023-02-11T02:56:06.421Z,39.33
2023-02-11T03:00:37.347Z,40.02
2023-02-11T03:04:52.105Z,40.04
2023-02-11T03:08:59.648Z,39.89
2023-02-11T03:13:03.041Z,40.76
2023-02-11T03:17:06.406Z,40.20
2023-02-11T03:21:09.917Z,39.97
2023-02-11T03:25:11.454Z,39.58
2023-02-11T03:29:32.234Z,39.39
2023-02-11T03:33:53.239Z,39.82
2023-02-11T03:38:06.350Z,39.78
2023-02-11T03:42:10.582Z,40.02
2023-02-11T03:46:15.041Z,39.66
2023-02-11T03:50:18.424Z,40.41
2023-02-11T03:54:29.099Z,39.60
2023-02-11T03:58:30.762Z,40.50
2023-02-11T04:02:34.864Z,39.77
2023-02-11T04:06:36.338Z,40.12
2023-02-11T04:10:37.708Z,39.67
2023-02-11T04:14:39.111Z,39.40
2023-02-11T04:18:40.366Z,39.02
2023-02-11T04:22:41.726Z,39.44
2023-02-11T04:26:43.082Z,39.02
2023-02-11T04:30:44.514Z,39.15
2023-02-11T04:34:45.942Z,39.17
2023-02-11T04:38:47.238Z,39.44
2023-02-11T04:42:48.564Z,39.37
2023-02-11T04:46:49.916Z,38.82
2023-02-11T04:50:51.371Z,39.17
2023-02-11T04:54:52.650Z,39.00
2023-02-11T04:58:54.108Z,38.89
2023-02-11T05:02:55.421Z,38.71
2023-02-11T05:06:58.652Z,38.84
2023-02-11T05:11:02.010Z,39.40
2023-02-11T05:15:03.458Z,38.88
2023-02-11T05:19:04.933Z,39.58
2023-02-11T05:23:06.378Z,39.66
2023-02-11T05:27:07.711Z,40.13
2023-02-11T05:31:09.650Z,39.62
2023-02-11T05:35:11.125Z,39.61
2023-02-11T05:39:12.472Z,39.61
2023-02-11T05:43:13.780Z,39.89
2023-02-11T05:47:15.065Z,39.51
2023-02-11T05:51:16.399Z,40.05
2023-02-11T05:55:18.127Z,39.63
2023-02-11T05:59:19.674Z,40.32
2023-02-11T06:03:21.013Z,40.26
2023-02-11T06:07:22.409Z,40.30
2023-02-11T06:11:23.776Z,41.51
2023-02-11T06:15:25.300Z,41.02
2023-02-11T06:19:27.159Z,40.89
2023-02-11T06:23:30.322Z,40.83
2023-02-11T06:27:31.973Z,40.53
2023-02-11T06:31:33.406Z,39.96
2023-02-11T06:35:35.336Z,40.81
2023-02-11T06:39:36.875Z,40.77
2023-02-11T06:43:38.419Z,41.06
2023-02-11T06:47:40.698Z,40.62
2023-02-11T06:51:42.028Z,40.66
2023-02-11T06:55:43.401Z,41.48
2023-02-11T06:59:44.731Z,40.97
2023-02-11T07:03:46.970Z,41.18
2023-02-11T07:07:48.348Z,40.96
2023-02-11T07:11:49.705Z,41.46
2023-02-11T07:15:51.324Z,41.44
2023-02-11T07:19:52.830Z,41.19
2023-02-11T07:23:54.411Z,41.35
2023-02-11T07:27:55.800Z,41.83
2023-02-11T07:31:57.407Z,41.74
2023-02-11T07:36:00.818Z,42.36
2023-02-11T07:40:02.386Z,42.43
2023-02-11T07:44:03.899Z,42.68
2023-02-11T07:48:05.377Z,43.05
2023-02-11T07:52:06.635Z,42.63
2023-02-11T07:56:09.821Z,42.75
2023-02-11T08:00:11.869Z,42.34
2023-02-11T08:04:13.335Z,42.46
2023-02-11T08:08:14.717Z,43.61
2023-02-11T08:12:16.262Z,42.87
2023-02-11T08:16:21.272Z,43.28
2023-02-11T08:20:22.640Z,43.17
2023-02-11T08:24:24.020Z,42.89
2023-02-11T08:28:25.455Z,43.61
2023-02-11T08:32:26.858Z,43.51
2023-02-11T08:36:30.813Z,42.29
2023-02-11T08:40:32.151Z,43.01
2023-02-11T08:44:33.426Z,42.52
2023-02-11T08:48:35.025Z,43.13
2023-02-11T08:52:36.643Z,43.86
2023-02-11T08:56:39.009Z,43.18
2023-02-11T09:00:40.426Z,42.84
2023-02-11T09:04:41.803Z,43.01
2023-02-11T09:08:46.885Z,43.09
2023-02-11T09:12:48.156Z,42.88
2023-02-11T09:16:51.131Z,42.99
2023-02-11T09:20:52.822Z,42.72
2023-02-11T09:24:54.341Z,43.05
2023-02-11T09:28:56.307Z,43.80
2023-02-11T09:32:57.583Z,43.13
2023-02-11T09:36:58.963Z,43.15
2023-02-11T09:41:03.899Z,43.32
2023-02-11T09:45:10.498Z,42.54
2023-02-11T09:49:21.767Z,43.04
2023-02-11T09:53:33.302Z,42.72
2023-02-11T09:57:36.784Z,42.52
2023-02-11T10:01:55.027Z,42.37
2023-02-11T10:06:36.613Z,42.23
2023-02-11T10:11:04.621Z,42.27
2023-02-11T10:15:12.297Z,42.18
2023-02-11T10:19:26.856Z,42.09
2023-02-11T10:23:36.041Z,41.98
2023-02-11T10:27:37.346Z,41.89
2023-02-11T10:31:44.856Z,41.25
2023-02-11T10:35:46.246Z,41.85
2023-02-11T10:39:48.678Z,42.62
2023-02-11T10:43:50.919Z,42.04
2023-02-11T10:47:52.391Z,42.81
2023-02-11T10:52:13.492Z,41.55
2023-02-11T10:56:24.285Z,41.43
2023-02-11T11:00:36.869Z,41.67
2023-02-11T11:04:45.190Z,41.54
2023-02-11T11:08:51.642Z,41.45
2023-02-11T11:12:53.050Z,41.86
2023-02-11T11:16:55.727Z,42.05
2023-02-11T11:21:05.779Z,41.66
2023-02-11T11:25:32.868Z,41.67
2023-02-11T11:29:42.982Z,42.10
2023-02-11T11:33:45.848Z,42.21
2023-02-11T11:38:03.776Z,40.92
2023-02-11T11:42:24.342Z,42.41
2023-02-11T11:46:38.037Z,41.99
2023-02-11T11:50:45.489Z,41.76
2023-02-11T11:54:55.389Z,41.66
2023-02-11T11:58:56.815Z,41.92
2023-02-11T12:03:52.461Z,41.59
2023-02-11T12:08:16.178Z,40.62
2023-02-11T12:12:41.029Z,41.53
2023-02-11T12:17:10.913Z,42.29
2023-02-11T12:21:33.181Z,41.79
2023-02-11T12:25:46.462Z,41.60
2023-02-11T12:30:03.221Z,41.90
2023-02-11T12:34:39.112Z,41.50
2023-02-11T12:39:02.541Z,41.92
2023-02-11T12:43:16.444Z,42.53
2023-02-11T12:47:55.805Z,42.05
2023-02-11T12:52:17.769Z,41.15
2023-02-11T12:56:39.592Z,41.20
2023-02-11T13:00:51.308Z,40.88
2023-02-11T13:05:14.338Z,41.50
2023-02-11T13:09:27.038Z,41.30
2023-02-11T13:13:39.094Z,41.46
2023-02-11T13:17:50.222Z,41.20
2023-02-11T13:22:09.168Z,41.53
2023-02-11T13:26:40.485Z,41.15
2023-02-11T13:30:47.166Z,41.02
2023-02-11T13:34:51.660Z,41.43
2023-02-11T13:38:57.013Z,41.42
2023-02-11T13:43:01.179Z,41.54
2023-02-11T13:47:05.277Z,41.58
2023-02-11T13:51:12.524Z,41.36
2023-02-11T13:55:13.760Z,41.54
2023-02-11T13:59:33.445Z,41.68
2023-02-11T14:03:57.872Z,41.39
2023-02-11T14:08:38.876Z,41.57
2023-02-11T14:12:40.772Z,40.89
2023-02-11T14:17:11.273Z,41.07
2023-02-11T14:21:20.184Z,41.23
2023-02-11T14:25:25.571Z,41.55
2023-02-11T14:29:44.012Z,41.17
2023-02-11T14:34:04.431Z,40.84
2023-02-11T14:38:34.271Z,40.92
2023-02-11T14:42:38.272Z,41.06
2023-02-11T14:46:45.114Z,41.23
2023-02-11T14:50:51.876Z,40.88
2023-02-11T14:55:21.656Z,40.66
2023-02-11T14:59:23.040Z,40.82
2023-02-11T15:03:36.054Z,41.17
2023-02-11T15:07:37.495Z,41.07
2023-02-11T15:11:41.514Z,41.62
2023-02-11T15:15:46.364Z,41.36
2023-02-11T15:19:53.044Z,41.92
2023-02-11T15:24:02.959Z,41.01
2023-02-11T15:28:20.882Z,41.26
2023-02-11T15:32:25.355Z,41.12
2023-02-11T15:36:34.192Z,41.59
2023-02-11T15:40:37.231Z,41.01
2023-02-11T15:44:38.626Z,41.26
2023-02-11T15:48:47.285Z,40.78
2023-02-11T15:52:49.742Z,41.47
2023-02-11T15:56:55.357Z,41.85
2023-02-11T16:00:59.866Z,42.50
2023-02-11T16:05:08.414Z,42.31
2023-02-11T16:09:12.323Z,41.62
2023-02-11T16:13:13.652Z,41.96
2023-02-11T16:17:17.997Z,41.85
2023-02-11T16:21:21.367Z,41.80
2023-02-11T16:25:23.574Z,41.49
2023-02-11T16:29:27.958Z,41.55
2023-02-11T16:33:29.827Z,42.06
2023-02-11T16:37:32.207Z,41.68
2023-02-11T16:41:33.716Z,41.68
2023-02-11T16:45:38.034Z,42.27
2023-02-11T16:49:42.789Z,41.48
2023-02-11T16:53:44.102Z,41.72
2023-02-11T16:57:45.420Z,41.96
2023-02-11T17:01:49.253Z,42.20
2023-02-11T17:05:55.617Z,41.78
2023-02-11T17:09:57.174Z,42.03
2023-02-11T17:13:58.516Z,42.10
2023-02-11T17:17:59.888Z,41.85
2023-02-11T17:22:01.598Z,42.03
2023-02-11T17:26:03.578Z,42.05
2023-02-11T17:30:05.895Z,42.32
2023-02-11T17:34:07.664Z,42.22
2023-02-11T17:38:09.021Z,41.95
2023-02-11T17:42:11.718Z,42.11
2023-02-11T17:46:14.107Z,42.22
2023-02-11T17:50:15.625Z,42.21
2023-02-11T17:54:19.217Z,42.02
2023-02-11T17:58:20.609Z,42.04
2023-02-11T18:02:21.936Z,42.21
2023-02-11T18:06:23.573Z,42.15
2023-02-11T18:10:24.948Z,41.91
2023-02-11T18:14:26.351Z,42.48
2023-02-11T18:18:27.733Z,42.74
2023-02-11T18:22:30.796Z,42.55
2023-02-11T18:26:32.243Z,42.51
2023-02-11T18:30:33.953Z,42.23
2023-02-11T18:34:35.278Z,42.31
2023-02-11T18:38:37.025Z,42.60
2023-02-11T18:42:38.567Z,42.75
2023-02-11T18:46:41.744Z,42.19
2023-02-11T18:50:44.706Z,42.58
2023-02-11T18:54:46.162Z,42.20
2023-02-11T18:58:48.112Z,42.55
2023-02-11T19:02:49.448Z,42.85
2023-02-11T19:06:50.954Z,42.53
2023-02-11T19:10:52.295Z,42.09
2023-02-11T19:14:53.723Z,42.31
2023-02-11T19:18:56.811Z,42.58
2023-02-11T19:22:58.127Z,42.81
2023-02-11T19:27:02.657Z,42.58
2023-02-11T19:31:09.050Z,42.61
2023-02-11T19:35:10.680Z,42.70
2023-02-11T19:39:12.643Z,43.18
2023-02-11T19:43:13.909Z,42.53
2023-02-11T19:47:15.249Z,42.87
2023-02-11T19:51:17.417Z,42.79
2023-02-11T19:55:18.886Z,43.16
2023-02-11T19:59:20.952Z,43.28
2023-02-11T20:03:22.243Z,43.21
2023-02-11T20:07:23.636Z,42.52
2023-02-11T20:11:26.791Z,42.79
2023-02-11T20:15:28.172Z,42.55
2023-02-11T20:19:30.636Z,42.55
2023-02-11T20:23:32.058Z,43.20
2023-02-11T20:27:33.526Z,42.72
2023-02-11T20:31:35.062Z,42.44
2023-02-11T20:35:36.594Z,42.75
2023-02-11T20:39:40.886Z,43.04
2023-02-11T20:43:45.801Z,42.65
2023-02-11T20:47:47.191Z,42.16
2023-02-11T20:51:49.258Z,42.49
2023-02-11T20:55:50.914Z,42.66
2023-02-11T20:59:52.573Z,42.59
2023-02-11T21:04:00.136Z,42.59
2023-02-11T21:08:01.566Z,42.28
2023-02-11T21:12:03.146Z,42.68
2023-02-11T21:16:05.096Z,42.54
2023-02-11T21:20:07.116Z,42.59
2023-02-11T21:24:10.105Z,42.67
2023-02-11T21:28:11.497Z,42.83
2023-02-11T21:32:12.942Z,42.71
2023-02-11T21:36:14.998Z,43.39
2023-02-11T21:40:16.766Z,42.82
2023-02-11T21:44:18.848Z,42.84
2023-02-11T21:48:20.213Z,42.46
2023-02-11T21:52:21.572Z,42.51
2023-02-11T21:56:23.510Z,42.68
2023-02-11T22:00:25.022Z,42.79
2023-02-11T22:04:26.555Z,42.46
2023-02-11T22:08:30.324Z,42.57
2023-02-11T22:12:31.664Z,42.91
2023-02-11T22:16:33.214Z,42.34
2023-02-11T22:20:34.567Z,42.11
2023-02-11T22:24:36.351Z,42.42
2023-02-11T22:28:40.383Z,42.10
2023-02-11T22:32:42.456Z,42.61
2023-02-11T22:36:45.295Z,42.37
2023-02-11T22:40:46.632Z,42.67
2023-02-11T22:44:48.017Z,42.18
2023-02-11T22:48:50.037Z,43.01
2023-02-11T22:52:51.353Z,42.33
2023-02-11T22:56:53.342Z,42.67
2023-02-11T23:00:54.630Z,42.26
2023-02-11T23:04:56.052Z,42.50
2023-02-11T23:08:57.447Z,42.55
2023-02-11T23:12:58.716Z,42.44
2023-02-11T23:17:00.154Z,41.92
2023-02-11T23:21:12.457Z,42.26
2023-02-11T23:25:14.190Z,42.06
2023-02-11T23:29:15.558Z,42.39
2023-02-11T23:33:16.936Z,42.42
2023-02-11T23:37:18.533Z,42.19
2023-02-11T23:41:20.276Z,42.70
2023-02-11T23:45:22.519Z,42.87
2023-02-11T23:49:23.922Z,42.41
2023-02-11T23:53:25.265Z,41.90
2023-02-11T23:57:26.605Z,42.32
